Flight Track Log - Related Links

Times and Time Zones

All times are in EDT time to prevent confusion due to time zone crossing. See the N779NC flight status page for this flight to view local times or setup timezone preferences in your user account.


Time Position Orientation Groundspeed Altitude Reporting Facility
EDT Latitude Longitude Course Direction KTS MPH feet Rate Location/Type
Sun 06:08:42 PM 30.4647 -91.2139 80° East 244 281 3,000  Level Houston Center
Sun 06:09:44 PM 30.4289 -91.1567 126° Southeast 243 280 4,600 1,742 Climbing Houston Center
Sun 06:10:46 PM 30.4611 -91.0786 64° Northeast 265 305 6,600 2,081 Climbing Houston Center
Sun 06:11:00 PM 30.7119 -90.5702 65° Northeast  Level FlightAware Approximate
Sun 06:11:48 PM 30.4947 -90.9978 64° Northeast 277 319 8,900  Level Houston Center
Sun 06:12:00 PM 30.7536 -90.4585 81° East  Level FlightAware Approximate
Sun 06:12:50 PM 30.5411 -90.8994 61° Northeast 290 334 10,800  Level Houston Center
Sun 06:13:00 PM 30.7711 -90.3358 80° East  Level FlightAware Approximate
Sun 06:13:52 PM 30.5781 -90.7986 67° East 335 386 11,900  Level Houston Center
Sun 06:14:54 PM 30.6019 -90.6872 76° East 355 409 14,000 1,839 Climbing Houston Center
Sun 06:15:56 PM 30.6250 -90.5744 77° East 359 413 15,700 1,645 Climbing Houston Center
Sun 06:16:58 PM 30.6497 -90.4578 76° East 368 423 17,400 1,597 Climbing Houston Center
Sun 06:18:00 PM 30.6747 -90.3392 76° East 377 434 19,000 1,452 Climbing Houston Center
Sun 06:19:02 PM 30.7019 -90.2183 75° East 385 443 20,400 1,355 Climbing Houston Center
Sun 06:20:04 PM 30.7439 -90.0722 71° East 394 453 21,800 1,306 Climbing Houston Center
Sun 06:21:06 PM 30.7811 -89.9464 71° East 406 467 23,100 1,403 Climbing Houston Center
Sun 06:22:08 PM 30.8339 -89.8308 62° Northeast 408 470 24,700 1,296 Climbing Houston Center
Sun 06:23:11 PM 30.8922 -89.7231 58° Northeast 397 457 25,800 960 Climbing Houston Center
Sun 06:24:13 PM 30.9475 -89.6069 61° Northeast 404 465 26,700 919 Climbing Houston Center
Sun 06:25:15 PM 31.0058 -89.4917 59° Northeast 409 471 27,700 774 Climbing Houston Center
Sun 06:26:17 PM 31.0658 -89.3775 58° Northeast 413 475 28,300 629 Climbing Houston Center
Sun 06:27:19 PM 31.1328 -89.2322 62° Northeast 420 483 29,000 290 Climbing Houston Center
Sun 06:28:21 PM 31.1961 -89.1081 59° Northeast 438 504 28,900  Descending Houston Center
Sun 06:29:23 PM 31.2650 -88.9653 61° Northeast 465 535 29,000 48 Climbing Houston Center
Sun 06:30:25 PM 31.3314 -88.8294 60° Northeast 476 548 29,000  Level Houston Center
Sun 06:31:27 PM 31.4031 -88.6919 59° Northeast 487 560 29,000  Level Houston Center
Sun 06:32:29 PM 31.4753 -88.5558 58° Northeast 489 563 29,000  Level Houston Center
Sun 06:33:31 PM 31.5475 -88.4231 57° Northeast 482 555 29,000  Level Houston Center
Sun 06:34:33 PM 31.6186 -88.2872 58° Northeast 483 556 29,000  Level Houston Center
Sun 06:35:35 PM 31.6906 -88.1506 58° Northeast 488 562 29,000  Level Houston Center
Sun 06:36:37 PM 31.7606 -88.0131 59° Northeast 488 562 29,000  Level Houston Center
Sun 06:37:39 PM 31.8472 -87.8525 58° Northeast 485 558 29,000  Level Houston Center
Sun 06:38:41 PM 31.9211 -87.7161 57° Northeast 491 565 29,000  Level Houston Center
Sun 06:39:43 PM 31.9936 -87.5847 57° Northeast 484 557 29,000  Level Houston Center
Sun 06:40:45 PM 32.0636 -87.4569 57° Northeast 469 540 29,000  Level Houston Center
Sun 06:41:47 PM 32.1311 -87.3222 59° Northeast 472 543 29,000  Level Houston Center
Sun 06:42:49 PM 32.1861 -87.1736 66° East 485 558 29,000  Level Houston Center
Sun 06:43:57 PM 32.2578 -87.0083 63° Northeast 471 542 29,000  Level Atlanta Center
Sun 06:44:57 PM 32.3175 -86.8678 63° Northeast 477 549 29,000 -600 Level Atlanta Center
Sun 06:45:57 PM 32.3728 -86.7269 65° Northeast 477 549 27,800 -1,400 Descending Atlanta Center
Sun 06:46:57 PM 32.4319 -86.5958 62° Northeast 463 533 26,200 -1,200 Descending Atlanta Center
Sun 06:47:57 PM 32.4828 -86.4569 67° East 458 527 25,400 -500 Descending Atlanta Center
Sun 06:48:57 PM 32.5314 -86.3128 68° East 463 533 25,200 -200 Descending Atlanta Center
Sun 06:49:57 PM 32.5839 -86.1811 65° Northeast 456 525 25,000 -100 Descending Atlanta Center
Sun 06:50:57 PM 32.6361 -86.0417 66° East 450 518 25,000 -300 Level Atlanta Center
Sun 06:51:57 PM 32.6883 -85.9097 65° Northeast 455 524 24,400 -450 Descending Atlanta Center
Sun 06:52:57 PM 32.7569 -85.7875 56° Northeast 444 511 24,100 -300 Descending Atlanta Center
Sun 06:53:57 PM 32.8214 -85.6603 59° Northeast 444 511 23,800 -1,550 Descending Atlanta Center
Sun 06:54:57 PM 32.8917 -85.5428 55° Northeast 444 511 21,000 -2,650 Descending Atlanta Center
Sun 06:55:57 PM 32.9597 -85.4303 54° Northeast 432 497 18,500 -2,450 Descending Atlanta Center
Sun 06:56:57 PM 33.0156 -85.3047 62° Northeast 419 482 16,100 -1,900 Descending Atlanta Center
Sun 06:57:57 PM 33.0667 -85.1864 63° Northeast 407 468 14,700 -1,050 Descending Atlanta Center
Sun 06:58:57 PM 33.1469 -85.0983 43° Northeast 361 415 14,000 -350 Descending Atlanta Center
Sun 06:59:57 PM 33.2100 -85.0219 45° Northeast 337 388 14,000  Level Atlanta Center
Sun 07:00:57 PM 33.2733 -84.9383 48° Northeast 326 375 14,000 -550 Level Atlanta Center
Sun 07:01:57 PM 33.3322 -84.8594 48° Northeast 326 375 12,900 -900 Descending Atlanta Center
Sun 07:02:57 PM 33.3933 -84.7828 46° Northeast 314 361 12,200 -450 Descending Atlanta Center
Sun 07:03:57 PM 33.4503 -84.7061 48° Northeast 314 361 12,000 -100 Descending Atlanta Center
Sun 07:04:57 PM 33.5006 -84.6292 52° Northeast 306 352 12,000 -150 Level Atlanta Center
Sun 07:05:57 PM 33.5364 -84.5522 61° Northeast 275 316 11,700 -950 Descending Atlanta Center
Sun 07:06:57 PM 33.5431 -84.4675 85° East 254 292 10,100 -1,692 Descending Atlanta Center
Sun 07:08:33 PM 33.5500 -84.3333 86° East 238 274 7,300 -1,885 Descending Atlanta TRACON
Sun 07:09:33 PM 33.5667 -84.2500 76° East 239 275 5,200 -2,100 Descending Atlanta TRACON

Login

Don't have an account? Register now (free) for customized features, flight alerts, and more!